Time;durP1;ratioP1;P1;durP2;ratioP2;P2;SDS_P1;SDS_P2;PMS_P1;PMS_P2;Temp;Humidity;BMP_temperature;BMP_pressure;BME280_temperature;BME280_humidity;BME280_pressure;Samples;Min_cycle;Max_cycle;Signal;HPM_P1;HPM_P2
2020/12/23 00:38:56;;;;;;;0.70;0.70;;;10.90;91.00;;;;;;5002315;28;20257;-83
2020/12/23 00:41:23;;;;;;;0.70;0.70;;;10.90;91.00;;;;;;5003804;28;20207;-83
2020/12/23 00:43:49;;;;;;;0.47;0.47;;;10.80;91.10;;;;;;5004251;28;20235;-83
2020/12/23 00:47:02;;;;;;;0.68;0.60;;;10.90;91.10;;;;;;5015961;28;20188;-83
2020/12/23 00:50:07;;;;;;;0.63;0.63;;;11.00;90.50;;;;;;5006011;28;20600;-83
2020/12/23 00:52:34;;;;;;;1.33;0.70;;;11.10;90.50;;;;;;4997218;28;20199;-83
2020/12/23 00:55:01;;;;;;;0.80;0.60;;;11.10;90.50;;;;;;5002894;28;20235;-83
2020/12/23 00:58:12;;;;;;;0.82;0.82;;;11.20;90.60;;;;;;5002919;28;20200;-83
2020/12/23 01:00:39;;;;;;;0.60;0.60;;;11.30;90.30;;;;;;5081291;23;20241;-84
2020/12/23 01:03:05;;;;;;;0.60;0.60;;;11.30;90.00;;;;;;5038156;28;20206;-83
2020/12/23 01:05:31;;;;;;;0.73;0.63;;;11.20;90.10;;;;;;5039088;28;20298;-83
2020/12/23 01:07:58;;;;;;;0.55;0.55;;;11.10;90.30;;;;;;5031004;28;20711;-83
2020/12/23 01:10:25;;;;;;;0.80;0.80;;;11.10;90.50;;;;;;5035263;28;20309;-83
2020/12/23 01:12:53;;;;;;;1.25;0.90;;;11.10;90.20;;;;;;5038416;28;20205;-84
2020/12/23 01:15:19;;;;;;;0.70;0.60;;;11.10;90.50;;;;;;5046020;28;20295;-84
2020/12/23 01:17:45;;;;;;;0.45;0.45;;;11.10;90.50;;;;;;5035577;28;20662;-83
2020/12/23 01:20:11;;;;;;;1.05;0.70;;;11.10;90.30;;;;;;5042682;28;20222;-84
2020/12/23 01:22:38;;;;;;;0.70;0.57;;;11.10;90.10;;;;;;5041561;28;20195;-83
2020/12/23 01:25:04;;;;;;;0.60;0.60;;;11.20;89.60;;;;;;5037566;28;20688;-83
2020/12/23 01:27:31;;;;;;;1.20;0.68;;;11.10;90.00;;;;;;5028985;28;20589;-84
2020/12/23 01:29:57;;;;;;;0.60;0.60;;;11.00;90.20;;;;;;5038339;28;20207;-84
2020/12/23 01:32:24;;;;;;;0.65;0.50;;;10.90;90.50;;;;;;5042553;28;20356;-83
2020/12/23 01:34:50;;;;;;;0.63;0.52;;;10.90;90.50;;;;;;5029595;28;20446;-84
2020/12/23 01:37:16;;;;;;;0.70;0.70;;;10.80;90.50;;;;;;5032952;28;20195;-83
2020/12/23 01:39:43;;;;;;;0.93;0.52;;;10.90;90.80;;;;;;5028954;28;20748;-84
2020/12/23 01:42:09;;;;;;;1.17;1.08;;;11.00;90.40;;;;;;5029007;28;20199;-84
2020/12/23 01:44:38;;;;;;;0.80;0.80;;;11.00;90.10;;;;;;5031819;28;20325;-83
2020/12/23 01:47:09;;;;;;;1.42;0.70;;;11.00;90.10;;;;;;5039994;28;20201;-83
2020/12/23 01:50:11;;;;;;;0.60;0.60;;;11.00;90.10;;;;;;5052684;28;20239;-84
2020/12/23 01:52:38;;;;;;;1.02;0.50;;;10.90;90.30;;;;;;5039896;28;20206;-83
2020/12/23 01:55:07;;;;;;;0.50;0.50;;;10.90;90.20;;;;;;5035455;28;20230;-84
2020/12/23 01:57:46;;;;;;;0.60;0.60;;;10.80;90.50;;;;;;5035493;28;20199;-83
2020/12/23 02:00:13;;;;;;;0.57;0.57;;;10.80;90.50;;;;;;5038123;28;20226;-84
2020/12/23 02:02:43;;;;;;;0.50;0.50;;;10.80;90.50;;;;;;5041600;28;20289;-83
2020/12/23 02:05:10;;;;;;;0.57;0.50;;;10.70;90.40;;;;;;5042160;28;20261;-84
2020/12/23 02:07:37;;;;;;;0.98;0.80;;;10.70;90.40;;;;;;5032186;28;20199;-84
2020/12/23 02:10:05;;;;;;;0.70;0.60;;;10.60;90.40;;;;;;5040209;28;20236;-83
2020/12/23 02:12:32;;;;;;;0.82;0.82;;;10.50;90.40;;;;;;5043265;28;20236;-83
2020/12/23 02:15:08;;;;;;;0.60;0.60;;;10.50;90.40;;;;;;5042928;28;20230;-83
2020/12/23 02:17:35;;;;;;;0.70;0.70;;;10.50;90.40;;;;;;5044832;28;20254;-83
2020/12/23 02:20:02;;;;;;;0.70;0.70;;;10.50;90.40;;;;;;5051131;28;20313;-84
2020/12/23 02:22:30;;;;;;;1.45;1.00;;;10.50;90.40;;;;;;5045798;28;20205;-83
2020/12/23 02:24:56;;;;;;;1.23;1.10;;;10.40;90.40;;;;;;5040852;28;20242;-86
2020/12/23 02:27:24;;;;;;;1.15;1.05;;;10.40;90.40;;;;;;5041921;28;20203;-83
2020/12/23 02:29:52;;;;;;;1.38;1.20;;;10.30;90.80;;;;;;5038626;28;20257;-87
2020/12/23 02:32:44;;;;;;;1.60;1.30;;;10.20;90.90;;;;;;5041577;28;20191;-84
2020/12/23 02:35:11;;;;;;;1.27;1.17;;;10.20;91.20;;;;;;5029595;28;20245;-84
2020/12/23 02:38:25;;;;;;;1.02;0.95;;;10.10;91.30;;;;;;5035562;28;20649;-84
2020/12/23 02:40:52;;;;;;;2.28;1.30;;;10.10;91.40;;;;;;5033030;28;20726;-84
2020/12/23 02:43:18;;;;;;;1.27;1.17;;;10.10;91.40;;;;;;5030950;28;20197;-86
2020/12/23 02:46:04;;;;;;;1.58;1.20;;;10.00;91.50;;;;;;5035347;28;20201;-84
2020/12/23 02:48:57;;;;;;;1.90;1.40;;;9.90;92.00;;;;;;5036273;28;20199;-84
2020/12/23 02:51:30;;;;;;;1.50;1.10;;;9.80;92.20;;;;;;5032893;28;20200;-85
2020/12/23 02:53:56;;;;;;;1.13;1.02;;;9.80;92.40;;;;;;5033132;28;20602;-89
2020/12/23 02:56:32;;;;;;;1.30;1.20;;;9.70;92.60;;;;;;5031650;28;20234;-84
2020/12/23 02:58:58;;;;;;;1.27;1.00;;;9.70;92.70;;;;;;5032296;28;20260;-86
2020/12/23 03:01:24;;;;;;;0.93;0.90;;;9.70;92.80;;;;;;5030581;28;20215;-85
2020/12/23 03:03:51;;;;;;;2.08;1.02;;;9.70;93.00;;;;;;5031314;28;20232;-84
2020/12/23 03:06:35;;;;;;;1.25;1.00;;;9.70;93.00;;;;;;5036203;28;20208;-84
2020/12/23 03:09:10;;;;;;;0.90;0.75;;;9.70;92.90;;;;;;5034561;28;20229;-85
2020/12/23 03:11:37;;;;;;;1.42;0.80;;;9.80;92.90;;;;;;5038548;28;20194;-86
2020/12/23 03:14:05;;;;;;;0.68;0.68;;;9.80;92.70;;;;;;5037042;28;20280;-83
2020/12/23 03:16:31;;;;;;;0.88;0.80;;;9.90;92.60;;;;;;5037206;28;20206;-83
2020/12/23 03:19:08;;;;;;;0.60;0.60;;;9.90;92.50;;;;;;5038361;28;20230;-83
2020/12/23 03:21:34;;;;;;;2.55;2.05;;;10.00;91.90;;;;;;5040369;28;20733;-84
2020/12/23 03:27:39;;;;;;;1.25;1.15;;;10.00;91.70;;;;;;5046068;28;20184;-83
2020/12/23 03:33:27;;;;;;;1.00;0.90;;;10.10;91.40;;;;;;5039393;28;20221;-83
2020/12/23 03:35:54;;;;;;;0.70;0.70;;;10.20;91.30;;;;;;5035160;28;20215;-83
2020/12/23 03:38:29;;;;;;;1.00;0.95;;;10.20;91.20;;;;;;5039423;28;20206;-83
2020/12/23 03:40:55;;;;;;;1.23;0.70;;;10.20;91.20;;;;;;5032141;28;20202;-83
2020/12/23 03:43:23;;;;;;;0.45;0.45;;;10.30;90.90;;;;;;5037434;28;20199;-83
2020/12/23 03:49:44;;;;;;;0.60;0.60;;;10.30;90.80;;;;;;5040528;28;20185;-83
2020/12/23 03:55:34;;;;;;;0.80;0.80;;;10.30;90.40;;;;;;5028183;28;20242;-84
2020/12/23 03:58:01;;;;;;;0.75;0.75;;;10.40;90.40;;;;;;5040173;28;20269;-83
2020/12/23 04:39:34;;;;;;;1.00;0.90;;;10.50;90.40;;;;;;5081535;28;20228;-84
2020/12/23 04:42:00;;;;;;;1.20;1.10;;;10.40;90.40;;;;;;5080874;28;20195;-83
2020/12/23 04:44:42;;;;;;;1.80;1.20;;;10.40;90.40;;;;;;5067513;28;20646;-83
2020/12/23 04:54:18;;;;;;;1.05;0.95;;;10.30;90.70;;;;;;5080450;28;20683;-83
2020/12/23 04:57:16;;;;;;;1.65;0.80;;;10.30;90.70;;;;;;5073535;28;20247;-83
2020/12/23 05:04:53;;;;;;;1.50;1.13;;;10.20;91.00;;;;;;5281910;22;20232;-84
2020/12/23 05:07:21;;;;;;;0.70;0.70;;;10.20;90.90;;;;;;5081689;28;20245;-83
2020/12/23 05:09:48;;;;;;;1.58;1.13;;;10.20;91.00;;;;;;5077513;28;20257;-83
2020/12/23 05:12:17;;;;;;;1.08;1.08;;;10.20;91.00;;;;;;5071517;28;20653;-83
2020/12/23 05:14:46;;;;;;;1.15;0.93;;;10.20;91.00;;;;;;5074054;28;20257;-83
2020/12/23 05:17:12;;;;;;;1.20;1.10;;;10.20;91.10;;;;;;5073759;28;20198;-87
2020/12/23 05:19:40;;;;;;;1.38;1.08;;;10.20;90.90;;;;;;5077334;28;20321;-84
2020/12/23 05:22:07;;;;;;;0.63;0.63;;;10.30;91.00;;;;;;5081784;28;20197;-83
2020/12/23 05:24:35;;;;;;;0.80;0.77;;;10.40;90.80;;;;;;5080067;28;20622;-82
2020/12/23 05:27:33;;;;;;;0.93;0.80;;;10.40;90.40;;;;;;5079851;28;20237;-83
2020/12/23 05:30:02;;;;;;;0.73;0.63;;;10.50;90.40;;;;;;5082930;28;20229;-83
2020/12/23 05:32:34;;;;;;;1.30;0.60;;;10.50;90.40;;;;;;5083382;28;20557;-84
2020/12/23 05:35:01;;;;;;;0.75;0.73;;;10.50;90.40;;;;;;5083136;28;20229;-83
2020/12/23 05:37:57;;;;;;;0.80;0.80;;;10.60;90.40;;;;;;5084483;28;20662;-83
2020/12/23 05:44:15;;;;;;;1.00;0.90;;;10.60;90.40;;;;;;5083231;28;20270;-85
2020/12/23 05:46:41;;;;;;;0.80;0.80;;;10.60;90.40;;;;;;5083543;28;20275;-83
2020/12/23 05:49:11;;;;;;;0.60;0.60;;;10.60;90.40;;;;;;5085379;28;20292;-83
2020/12/23 05:52:32;;;;;;;0.80;0.80;;;10.60;90.40;;;;;;5084477;28;20181;-83
2020/12/23 05:54:58;;;;;;;1.15;0.70;;;10.70;90.10;;;;;;5086003;28;20224;-84
2020/12/23 05:57:24;;;;;;;0.80;0.70;;;10.70;90.10;;;;;;5084746;28;20223;-84
2020/12/23 06:03:20;;;;;;;1.42;1.33;;;10.70;90.10;;;;;;6099693;22;20153;-83
2020/12/23 06:22:37;;;;;;;3.15;1.20;;;10.90;87.50;;;;;;4985600;28;20623;-84
2020/12/23 06:25:50;;;;;;;1.27;1.17;;;10.80;87.60;;;;;;5004610;28;20210;-83
2020/12/23 06:28:21;;;;;;;1.15;1.05;;;10.90;86.90;;;;;;4985164;28;20654;-83
2020/12/23 06:33:30;;;;;;;1.10;1.10;;;10.90;86.50;;;;;;4949029;28;20216;-83
2020/12/23 06:36:10;;;;;;;0.82;0.82;;;10.90;86.30;;;;;;4976063;28;20224;-84
2020/12/23 06:38:44;;;;;;;2.63;0.82;;;10.90;86.00;;;;;;5009429;28;20688;-83
2020/12/23 06:41:11;;;;;;;1.55;0.80;;;10.90;86.10;;;;;;5000744;28;20210;-85
2020/12/23 06:44:00;;;;;;;1.80;1.70;;;10.90;86.30;;;;;;4995165;28;20204;-83
2020/12/23 06:46:26;;;;;;;0.88;0.88;;;10.90;86.10;;;;;;4990043;28;20656;-84
2020/12/23 06:49:13;;;;;;;1.20;1.10;;;10.90;85.80;;;;;;5001074;28;20232;-84
2020/12/23 06:52:27;;;;;;;0.88;0.88;;;11.00;85.90;;;;;;5002633;28;20219;-84
2020/12/23 06:54:55;;;;;;;1.15;1.00;;;10.90;86.10;;;;;;4936722;28;20224;-87
2020/12/23 06:57:58;;;;;;;1.00;1.00;;;10.90;85.80;;;;;;4997190;28;20196;-85
2020/12/23 07:03:49;;;;;;;1.20;0.88;;;10.90;85.60;;;;;;5006449;28;20585;-85
2020/12/23 07:06:43;;;;;;;1.08;1.02;;;10.90;85.60;;;;;;4998717;28;20279;-86
2020/12/23 07:13:05;;;;;;;0.77;0.77;;;10.90;85.60;;;;;;5007611;28;20537;-86
2020/12/23 07:15:39;;;;;;;1.98;1.17;;;10.90;85.90;;;;;;4989978;28;20231;-86
2020/12/23 07:18:07;;;;;;;1.58;0.80;;;10.80;86.00;;;;;;4999905;28;20214;-85
2020/12/23 07:20:47;;;;;;;0.80;0.80;;;10.80;85.90;;;;;;4996819;28;20315;-84
2020/12/23 07:23:15;;;;;;;2.25;1.38;;;10.80;85.50;;;;;;4985797;28;20215;-89
2020/12/23 07:25:44;;;;;;;1.50;1.40;;;10.90;85.80;;;;;;4985591;28;20243;-84
2020/12/23 07:28:12;;;;;;;1.40;1.30;;;10.80;85.90;;;;;;4985382;28;20204;-84
2020/12/23 07:30:41;;;;;;;2.40;1.77;;;10.80;86.00;;;;;;4983883;28;20632;-83
2020/12/23 07:33:12;;;;;;;1.98;1.55;;;10.90;85.90;;;;;;4986106;28;20436;-86
2020/12/23 07:35:39;;;;;;;1.20;1.10;;;10.90;85.70;;;;;;4990727;28;20265;-86
2020/12/23 07:38:08;;;;;;;1.58;1.15;;;10.90;85.70;;;;;;4990297;28;20259;-83
2020/12/23 07:40:36;;;;;;;1.58;1.48;;;10.90;85.90;;;;;;4984710;28;20308;-85
2020/12/23 07:43:04;;;;;;;2.70;1.45;;;10.80;86.20;;;;;;4984468;28;20200;-84
2020/12/23 07:45:34;;;;;;;1.52;1.20;;;10.80;86.20;;;;;;4986125;28;20228;-82
2020/12/23 07:48:03;;;;;;;1.67;1.13;;;10.80;86.30;;;;;;4990027;28;20208;-83
2020/12/23 07:50:34;;;;;;;0.95;0.95;;;10.80;87.00;;;;;;5003250;28;20219;-85
2020/12/23 07:53:11;;;;;;;2.28;1.20;;;10.90;86.40;;;;;;5002107;28;20239;-85
2020/12/23 07:55:38;;;;;;;1.33;1.23;;;10.90;86.70;;;;;;4999272;28;20231;-84
2020/12/23 07:58:04;;;;;;;1.90;1.70;;;10.80;87.00;;;;;;5002460;28;20611;-84
2020/12/23 08:00:32;;;;;;;2.63;1.40;;;10.80;87.10;;;;;;4999263;28;20250;-86
2020/12/23 08:02:58;;;;;;;1.30;1.20;;;10.80;87.10;;;;;;4999728;28;20199;-85
2020/12/23 08:05:25;;;;;;;5.90;1.50;;;10.90;86.20;;;;;;5003833;28;20224;-87
2020/12/23 08:07:51;;;;;;;1.50;1.40;;;10.80;86.00;;;;;;5002016;28;20312;-86
2020/12/23 08:10:19;;;;;;;2.55;1.60;;;10.90;86.50;;;;;;5001257;28;20239;-83
2020/12/23 08:12:53;;;;;;;1.75;1.33;;;10.90;86.80;;;;;;4999676;28;20234;-84
2020/12/23 08:15:27;;;;;;;1.65;1.45;;;10.90;86.30;;;;;;5003037;28;20246;-84
2020/12/23 08:18:02;;;;;;;2.10;1.52;;;10.90;86.00;;;;;;4995365;28;20195;-84
2020/12/23 08:20:28;;;;;;;1.55;1.40;;;10.90;86.40;;;;;;5003312;28;20230;-84
2020/12/23 08:22:55;;;;;;;1.67;1.17;;;10.90;86.40;;;;;;5001418;28;20223;-83
2020/12/23 08:25:24;;;;;;;1.48;1.10;;;10.90;86.30;;;;;;5000112;28;20227;-84
2020/12/23 08:27:56;;;;;;;2.00;1.30;;;11.00;86.10;;;;;;5003236;28;20326;-84
2020/12/23 08:30:27;;;;;;;3.42;1.60;;;11.00;86.70;;;;;;5005741;28;20219;-85
2020/12/23 08:32:57;;;;;;;4.18;1.15;;;11.00;86.70;;;;;;5000484;28;20191;-84
2020/12/23 08:35:28;;;;;;;2.22;1.33;;;11.10;87.50;;;;;;4998164;28;20232;-85
2020/12/23 08:37:54;;;;;;;2.72;1.65;;;11.10;87.50;;;;;;4997584;28;20200;-85
2020/12/23 08:40:21;;;;;;;2.75;1.77;;;11.20;87.20;;;;;;4991669;28;20236;-86
2020/12/23 08:42:55;;;;;;;2.88;1.50;;;11.20;86.50;;;;;;4998306;28;20369;-88
2020/12/23 08:45:25;;;;;;;8.80;3.17;;;11.20;86.70;;;;;;5001535;28;20215;-88
2020/12/23 08:47:52;;;;;;;7.63;3.90;;;11.10;87.50;;;;;;4998636;28;20224;-86
2020/12/23 08:50:24;;;;;;;6.82;3.55;;;11.00;88.20;;;;;;4992100;28;20304;-86
2020/12/23 08:52:52;;;;;;;7.22;3.55;;;11.00;88.30;;;;;;4994040;28;20214;-86
2020/12/23 08:55:23;;;;;;;6.88;3.42;;;11.10;88.20;;;;;;5003105;28;20227;-86
2020/12/23 08:57:51;;;;;;;10.27;4.50;;;11.10;88.60;;;;;;5002492;28;20215;-87
2020/12/23 09:00:21;;;;;;;11.95;5.43;;;11.20;88.60;;;;;;5001291;28;20270;-88
2020/12/23 09:02:48;;;;;;;10.07;4.78;;;11.20;88.30;;;;;;5001317;28;20380;-87
2020/12/23 09:05:30;;;;;;;10.02;4.63;;;11.30;88.20;;;;;;5001705;28;20322;-88
2020/12/23 09:08:07;;;;;;;7.80;4.47;;;11.30;88.20;;;;;;4993977;28;20231;-87
2020/12/23 09:10:35;;;;;;;7.20;4.20;;;11.20;88.30;;;;;;5008999;28;20282;-88
2020/12/23 09:13:09;;;;;;;9.07;5.13;;;11.20;87.80;;;;;;4998370;28;20201;-87
2020/12/23 09:15:35;;;;;;;8.63;6.18;;;11.40;87.80;;;;;;5003730;28;20247;-87
2020/12/23 09:18:06;;;;;;;8.05;6.38;;;11.40;88.00;;;;;;5002848;28;20200;-87
2020/12/23 09:20:37;;;;;;;6.63;5.50;;;11.50;87.60;;;;;;5009929;28;20643;-87
2020/12/23 09:23:05;;;;;;;6.22;3.70;;;11.70;87.10;;;;;;5008023;28;20259;-87
2020/12/23 09:25:35;;;;;;;6.15;3.60;;;11.70;86.60;;;;;;5001173;28;20258;-87
2020/12/23 09:28:09;;;;;;;6.15;3.13;;;11.70;85.90;;;;;;4993794;28;20204;-87
2020/12/23 09:30:38;;;;;;;3.30;2.15;;;11.70;85.60;;;;;;5000129;28;20758;-87
2020/12/23 09:33:06;;;;;;;3.88;1.70;;;11.80;85.40;;;;;;5006829;28;20282;-87
2020/12/23 09:35:33;;;;;;;1.60;1.50;;;11.90;84.40;;;;;;4990117;28;20228;-87
2020/12/23 09:38:19;;;;;;;1.98;1.35;;;12.00;83.50;;;;;;5006964;28;20271;-87
2020/12/23 09:40:49;;;;;;;1.50;1.40;;;12.20;82.60;;;;;;5009028;28;20223;-87
2020/12/23 09:43:18;;;;;;;1.20;1.08;;;12.30;80.60;;;;;;5015712;28;20203;-89
2020/12/23 09:45:45;;;;;;;1.20;1.10;;;12.40;79.30;;;;;;5007155;28;20390;-86
2020/12/23 09:48:14;;;;;;;1.30;1.20;;;12.30;78.40;;;;;;5001705;28;20712;-87
2020/12/23 09:50:41;;;;;;;1.65;1.25;;;12.50;76.10;;;;;;5011259;28;20227;-88
2020/12/23 09:53:09;;;;;;;1.27;1.13;;;12.50;75.50;;;;;;4994279;28;20268;-87
2020/12/23 09:55:38;;;;;;;1.30;1.20;;;12.50;75.50;;;;;;4993651;28;20227;-89
2020/12/23 09:58:04;;;;;;;1.48;1.15;;;12.50;75.50;;;;;;4999521;28;20603;-87
2020/12/23 10:00:31;;;;;;;4.90;1.20;;;12.50;75.50;;;;;;4998809;28;20310;-87
2020/12/23 10:02:58;;;;;;;1.98;1.70;;;12.40;75.60;;;;;;4993655;28;20238;-87
2020/12/23 10:05:24;;;;;;;1.70;1.30;;;12.40;76.90;;;;;;4999764;28;20361;-86
2020/12/23 10:07:51;;;;;;;1.70;1.27;;;12.20;79.80;;;;;;4999239;28;20286;-87
2020/12/23 10:10:19;;;;;;;1.80;1.20;;;12.00;84.00;;;;;;4999806;28;20288;-87
2020/12/23 10:12:46;;;;;;;4.63;1.48;;;11.70;87.80;;;;;;5000922;28;20207;-87
2020/12/23 10:15:12;;;;;;;1.48;0.90;;;11.60;90.60;;;;;;5003392;28;20230;-87
2020/12/23 10:17:42;;;;;;;1.40;1.30;;;11.50;90.90;;;;;;5010763;28;20231;-87
2020/12/23 10:20:09;;;;;;;6.47;4.90;;;11.50;91.60;;;;;;5003828;28;20251;-87
2020/12/23 10:22:36;;;;;;;3.53;2.20;;;11.50;92.10;;;;;;5004016;28;20227;-87
2020/12/23 10:25:06;;;;;;;2.15;1.58;;;11.50;92.30;;;;;;5001502;28;20255;-87
2020/12/23 10:27:34;;;;;;;3.08;1.92;;;11.50;92.30;;;;;;5005635;28;20286;-87
2020/12/23 10:30:01;;;;;;;2.00;1.60;;;11.60;92.00;;;;;;5007008;28;20248;-87
2020/12/23 10:32:29;;;;;;;2.17;1.90;;;11.70;92.10;;;;;;5004352;28;20283;-87
2020/12/23 10:34:56;;;;;;;2.75;1.73;;;11.70;92.20;;;;;;5009964;28;20231;-87
2020/12/23 10:37:23;;;;;;;2.05;1.73;;;11.80;92.40;;;;;;5014436;28;20196;-87
2020/12/23 10:39:50;;;;;;;1.83;1.60;;;11.90;92.70;;;;;;5011117;28;20262;-87
2020/12/23 10:42:17;;;;;;;1.75;1.63;;;12.00;92.70;;;;;;5022485;28;20219;-87
2020/12/23 10:44:45;;;;;;;3.22;1.73;;;12.10;92.50;;;;;;5012099;28;20258;-87
2020/12/23 10:47:12;;;;;;;2.95;1.60;;;12.20;92.30;;;;;;4990987;28;20321;-86
2020/12/23 10:49:39;;;;;;;2.47;2.10;;;12.20;92.00;;;;;;5004685;28;20351;-87
2020/12/23 10:52:05;;;;;;;1.92;1.52;;;12.20;92.10;;;;;;5002256;28;20235;-87
2020/12/23 10:54:32;;;;;;;3.20;1.63;;;12.20;92.10;;;;;;5001724;28;20231;-87
2020/12/23 10:56:59;;;;;;;2.13;1.58;;;12.30;91.80;;;;;;5011045;28;20387;-87
2020/12/23 10:59:25;;;;;;;2.15;1.70;;;12.30;91.70;;;;;;5015692;28;20318;-87
2020/12/23 11:01:54;;;;;;;3.25;2.10;;;12.30;91.70;;;;;;5004498;28;20242;-86
2020/12/23 11:04:21;;;;;;;2.50;1.67;;;12.30;91.60;;;;;;5007448;28;20303;-87
2020/12/23 11:06:48;;;;;;;3.05;1.80;;;12.30;91.50;;;;;;5018585;28;20270;-87
2020/12/23 11:09:15;;;;;;;4.18;2.40;;;12.30;91.40;;;;;;5004004;28;20250;-87
2020/12/23 11:11:41;;;;;;;3.28;2.30;;;12.30;91.60;;;;;;5005606;28;20291;-87
2020/12/23 11:14:08;;;;;;;2.95;2.30;;;12.30;91.60;;;;;;5013659;28;20239;-87
2020/12/23 11:16:34;;;;;;;3.47;2.55;;;12.30;91.70;;;;;;5018066;28;20247;-87
2020/12/23 11:19:02;;;;;;;4.53;2.50;;;12.30;91.60;;;;;;4988476;28;20239;-87
2020/12/23 11:21:33;;;;;;;4.50;2.40;;;12.20;91.80;;;;;;5001523;28;20204;-86
2020/12/23 11:23:59;;;;;;;3.25;2.20;;;12.20;91.90;;;;;;5000178;28;20241;-87
2020/12/23 11:26:26;;;;;;;4.93;3.30;;;12.20;91.70;;;;;;5015671;28;20256;-87
2020/12/23 11:28:52;;;;;;;7.07;3.67;;;12.40;91.50;;;;;;5013238;28;20283;-87
2020/12/23 11:31:19;;;;;;;5.28;3.40;;;12.40;91.40;;;;;;5018062;28;20200;-87
2020/12/23 11:33:46;;;;;;;7.80;3.58;;;12.50;91.40;;;;;;5006477;28;20231;-86
2020/12/23 11:36:17;;;;;;;4.13;3.08;;;12.60;91.40;;;;;;5016155;28;20216;-86
2020/12/23 11:38:45;;;;;;;8.55;4.03;;;12.70;90.90;;;;;;4996213;28;20211;-88
2020/12/23 11:41:13;;;;;;;4.38;2.85;;;12.80;90.90;;;;;;5014447;28;20234;-87
2020/12/23 11:43:55;;;;;;;4.40;3.22;;;12.80;90.90;;;;;;4996201;28;20196;-87
2020/12/23 11:46:23;;;;;;;4.95;2.60;;;12.80;90.80;;;;;;5007837;28;20207;-87
2020/12/23 11:48:53;;;;;;;6.20;2.88;;;12.90;90.00;;;;;;4995834;28;20235;-87
2020/12/23 11:51:25;;;;;;;4.07;3.03;;;13.10;90.00;;;;;;5004599;28;20608;-87
2020/12/23 11:53:54;;;;;;;4.72;2.70;;;13.20;89.40;;;;;;5013938;28;20231;-87
2020/12/23 11:56:26;;;;;;;3.60;2.95;;;13.40;88.20;;;;;;4998693;28;20223;-87
2020/12/23 11:58:53;;;;;;;10.15;7.75;;;13.50;86.70;;;;;;4994047;28;20231;-87
2020/12/23 12:01:26;;;;;;;4.05;2.58;;;13.50;86.30;;;;;;5001817;28;20188;-87
2020/12/23 12:03:53;;;;;;;3.42;2.40;;;13.60;85.50;;;;;;5003925;28;20314;-87
2020/12/23 12:06:24;;;;;;;2.22;2.00;;;13.60;84.40;;;;;;5007048;28;20200;-88
2020/12/23 12:08:51;;;;;;;2.72;2.33;;;13.70;83.20;;;;;;4998518;28;20595;-87
2020/12/23 12:11:21;;;;;;;2.22;1.75;;;13.80;81.80;;;;;;5000042;28;20259;-87
2020/12/23 12:13:48;;;;;;;2.58;2.03;;;13.80;81.10;;;;;;4997910;28;20293;-87
2020/12/23 12:16:15;;;;;;;2.25;1.73;;;13.90;80.00;;;;;;5002448;28;20224;-88
2020/12/23 12:18:43;;;;;;;2.63;2.42;;;13.90;78.20;;;;;;4998100;28;20207;-87
2020/12/23 12:21:09;;;;;;;2.38;1.55;;;13.90;78.70;;;;;;5001834;28;20251;-87
2020/12/23 12:23:37;;;;;;;2.80;2.55;;;14.00;78.60;;;;;;4991120;28;20319;-87
2020/12/23 12:26:05;;;;;;;2.53;1.27;;;14.00;77.40;;;;;;4996280;28;20245;-88
2020/12/23 12:28:34;;;;;;;2.28;2.08;;;14.10;76.60;;;;;;4996892;28;20208;-87
2020/12/23 12:31:00;;;;;;;3.15;1.30;;;14.10;76.60;;;;;;4999128;28;20292;-87
2020/12/23 12:33:28;;;;;;;1.77;1.50;;;14.20;76.70;;;;;;4995452;28;20210;-87
2020/12/23 12:35:54;;;;;;;2.38;1.50;;;14.10;76.60;;;;;;5000436;28;20231;-87
2020/12/23 12:38:24;;;;;;;1.40;1.27;;;14.20;76.10;;;;;;4998802;28;20224;-87
2020/12/23 12:40:51;;;;;;;1.75;1.40;;;14.20;75.70;;;;;;5016524;28;20322;-87
2020/12/23 12:43:17;;;;;;;2.30;1.60;;;14.10;75.90;;;;;;4994508;28;20227;-87
2020/12/23 12:45:44;;;;;;;1.65;1.55;;;14.10;76.40;;;;;;5009136;28;20911;-87
2020/12/23 12:48:10;;;;;;;2.90;2.05;;;14.00;75.90;;;;;;4991906;28;20264;-87
2020/12/23 12:50:37;;;;;;;2.80;1.92;;;14.00;76.60;;;;;;4995593;28;20229;-87
2020/12/23 12:53:03;;;;;;;2.00;1.77;;;13.90;76.60;;;;;;5000151;28;20290;-87
2020/12/23 12:55:30;;;;;;;2.15;1.95;;;13.90;76.50;;;;;;4993415;28;20228;-87
2020/12/23 12:57:57;;;;;;;6.82;5.85;;;13.90;76.50;;;;;;5009637;28;20210;-87
2020/12/23 13:00:23;;;;;;;21.75;18.10;;;13.80;76.40;;;;;;5009881;28;20314;-87
2020/12/23 13:02:52;;;;;;;9.35;7.65;;;13.80;76.40;;;;;;4997995;28;20661;-87
2020/12/23 13:05:18;;;;;;;5.82;5.20;;;13.80;76.40;;;;;;4997350;28;20262;-87
2020/12/23 13:07:48;;;;;;;4.82;3.58;;;13.80;76.40;;;;;;5004934;28;20290;-89
2020/12/23 13:10:17;;;;;;;4.30;2.30;;;13.80;76.50;;;;;;4999836;28;20234;-87
2020/12/23 13:12:43;;;;;;;4.57;2.70;;;13.80;76.40;;;;;;5011318;28;20195;-87
2020/12/23 13:15:11;;;;;;;5.78;3.30;;;13.80;76.50;;;;;;5006250;28;20322;-87
2020/12/23 13:17:40;;;;;;;4.10;3.17;;;13.80;76.60;;;;;;4998609;28;20223;-88
2020/12/23 13:20:09;;;;;;;3.80;3.10;;;13.80;76.70;;;;;;5002246;28;20223;-88
2020/12/23 13:22:38;;;;;;;3.10;2.63;;;13.80;77.40;;;;;;4994373;28;20201;-87
2020/12/23 13:25:04;;;;;;;3.55;2.70;;;13.80;78.10;;;;;;5005503;28;20310;-87
2020/12/23 13:27:31;;;;;;;2.65;2.28;;;13.70;78.30;;;;;;4991661;28;20246;-86
2020/12/23 13:29:57;;;;;;;2.17;1.60;;;13.60;79.50;;;;;;5001974;28;20250;-87
2020/12/23 13:32:25;;;;;;;2.70;2.13;;;13.60;80.20;;;;;;5012033;28;20249;-87
2020/12/23 13:34:51;;;;;;;3.67;2.40;;;13.50;80.70;;;;;;5001980;28;20318;-87
2020/12/23 13:37:19;;;;;;;4.20;2.47;;;13.40;78.30;;;;;;5008354;28;20231;-87
2020/12/23 13:39:46;;;;;;;3.65;2.33;;;13.40;80.10;;;;;;5003803;28;20261;-87
2020/12/23 13:42:21;;;;;;;5.25;2.97;;;13.30;80.00;;;;;;5014933;28;20238;-87
2020/12/23 13:44:48;;;;;;;3.47;2.30;;;13.30;79.60;;;;;;5005595;28;20255;-87
2020/12/23 13:47:17;;;;;;;3.38;2.67;;;13.30;80.20;;;;;;5008536;28;20234;-88
2020/12/23 13:49:47;;;;;;;4.20;3.00;;;13.30;80.80;;;;;;5011519;28;20227;-87
2020/12/23 13:52:14;;;;;;;3.03;2.65;;;13.30;81.30;;;;;;5013227;28;20196;-87
2020/12/23 13:54:56;;;;;;;6.15;2.88;;;13.20;81.40;;;;;;5009008;28;20452;-90
2020/12/23 13:57:25;;;;;;;4.70;2.92;;;13.20;82.00;;;;;;4997419;28;20306;-87
2020/12/23 13:59:55;;;;;;;4.80;3.58;;;13.20;82.50;;;;;;5014331;28;20231;-87
2020/12/23 14:02:25;;;;;;;3.75;3.00;;;13.20;82.40;;;;;;5027682;28;20203;-88
2020/12/23 14:04:53;;;;;;;4.13;2.90;;;13.20;82.40;;;;;;5014200;28;20223;-87
2020/12/23 14:07:23;;;;;;;4.72;2.50;;;13.10;82.70;;;;;;4995914;28;20196;-87
2020/12/23 14:10:00;;;;;;;2.97;2.60;;;13.10;83.40;;;;;;5015345;28;20289;-87
2020/12/23 14:12:30;;;;;;;3.17;2.60;;;13.00;83.80;;;;;;5003009;28;20612;-87
2020/12/23 14:15:00;;;;;;;4.72;2.70;;;13.00;84.10;;;;;;5030806;28;20322;-88
2020/12/23 14:17:29;;;;;;;4.50;3.05;;;12.90;84.60;;;;;;5016254;28;20224;-88
2020/12/23 14:19:57;;;;;;;5.85;3.30;;;12.90;84.60;;;;;;5006786;28;20227;-87
2020/12/23 14:22:29;;;;;;;3.40;2.90;;;12.90;84.60;;;;;;5018884;28;20200;-88
2020/12/23 14:24:56;;;;;;;3.67;2.97;;;12.80;84.10;;;;;;5009335;28;20248;-88
2020/12/23 14:27:23;;;;;;;3.80;3.10;;;12.80;84.60;;;;;;5002437;28;20200;-87
2020/12/23 14:29:51;;;;;;;5.13;3.17;;;12.80;84.70;;;;;;5006202;28;20235;-87
2020/12/23 14:32:23;;;;;;;5.07;3.17;;;12.80;84.90;;;;;;5012290;28;20211;-88
2020/12/23 14:34:55;;;;;;;5.82;3.35;;;12.80;84.90;;;;;;5009823;28;20246;-88
2020/12/23 14:37:31;;;;;;;3.75;2.70;;;12.70;85.00;;;;;;5011750;28;20224;-87
2020/12/23 14:39:59;;;;;;;4.63;3.33;;;12.70;84.40;;;;;;4997083;28;20717;-87
2020/12/23 14:42:28;;;;;;;3.28;2.63;;;12.70;83.60;;;;;;5000884;28;20211;-89
2020/12/23 14:45:10;;;;;;;4.05;2.92;;;12.60;84.00;;;;;;5008653;28;20219;-88
2020/12/23 14:47:51;;;;;;;3.80;2.70;;;12.60;84.90;;;;;;5012378;28;20215;-87
2020/12/23 14:50:33;;;;;;;3.17;2.38;;;12.50;84.30;;;;;;5012502;28;20230;-88
2020/12/23 14:53:11;;;;;;;3.80;2.88;;;12.50;84.40;;;;;;5020702;28;20223;-87
2020/12/23 14:55:43;;;;;;;3.60;2.50;;;12.40;84.70;;;;;;5003148;28;20255;-87
2020/12/23 14:58:23;;;;;;;4.25;2.80;;;12.40;84.80;;;;;;5004613;28;20200;-87
2020/12/23 15:01:46;;;;;;;4.38;3.03;;;12.40;84.90;;;;;;5011504;28;20246;-88
2020/12/23 15:04:12;;;;;;;4.82;3.00;;;12.30;84.20;;;;;;4997629;28;20302;-87
2020/12/23 15:06:39;;;;;;;3.45;2.55;;;12.20;84.70;;;;;;5012731;28;20208;-88
2020/12/23 15:09:06;;;;;;;3.20;2.60;;;12.30;84.10;;;;;;5006257;28;20647;-89
2020/12/23 15:11:33;;;;;;;4.82;2.78;;;12.20;84.20;;;;;;5002117;28;20246;-87
2020/12/23 15:13:59;;;;;;;4.47;3.00;;;12.20;84.10;;;;;;5002051;28;20232;-88
2020/12/23 15:16:26;;;;;;;2.75;2.47;;;12.10;84.20;;;;;;5003604;28;20264;-87
2020/12/23 15:18:52;;;;;;;3.83;2.92;;;12.10;84.50;;;;;;4984163;28;20305;-87
2020/12/23 15:21:20;;;;;;;4.57;3.38;;;12.10;84.80;;;;;;5013127;28;20290;-87
2020/12/23 15:23:46;;;;;;;7.43;4.07;;;12.00;84.80;;;;;;4995429;28;20266;-88